sensor_id;sensor_type;location;lat;lon;timestamp;P1;durP1;ratioP1;P2;durP2;ratioP2
13309;SDS011;6723;48.256;16.402;2022-08-03T00:00:01;2.53;;;2.33;;
13309;SDS011;6723;48.256;16.402;2022-08-03T00:02:28;2.60;;;2.40;;
13309;SDS011;6723;48.256;16.402;2022-08-03T00:04:54;3.87;;;2.30;;
13309;SDS011;6723;48.256;16.402;2022-08-03T00:07:20;3.90;;;2.20;;
13309;SDS011;6723;48.256;16.402;2022-08-03T00:09:45;2.90;;;2.40;;
13309;SDS011;6723;48.256;16.402;2022-08-03T00:12:11;2.50;;;2.30;;
13309;SDS011;6723;48.256;16.402;2022-08-03T00:14:37;2.20;;;2.00;;
13309;SDS011;6723;48.256;16.402;2022-08-03T00:17:03;2.60;;;2.40;;
13309;SDS011;6723;48.256;16.402;2022-08-03T00:19:32;2.50;;;2.30;;
13309;SDS011;6723;48.256;16.402;2022-08-03T00:21:57;2.57;;;2.37;;
13309;SDS011;6723;48.256;16.402;2022-08-03T00:24:23;2.10;;;2.00;;
13309;SDS011;6723;48.256;16.402;2022-08-03T00:26:49;2.60;;;2.40;;
13309;SDS011;6723;48.256;16.402;2022-08-03T00:29:14;2.30;;;2.13;;
13309;SDS011;6723;48.256;16.402;2022-08-03T00:31:40;2.70;;;2.50;;
13309;SDS011;6723;48.256;16.402;2022-08-03T00:34:06;3.33;;;2.40;;
13309;SDS011;6723;48.256;16.402;2022-08-03T00:36:32;3.53;;;2.57;;
13309;SDS011;6723;48.256;16.402;2022-08-03T00:38:58;2.77;;;2.57;;
13309;SDS011;6723;48.256;16.402;2022-08-03T00:41:23;3.00;;;2.40;;
13309;SDS011;6723;48.256;16.402;2022-08-03T00:43:49;4.27;;;2.40;;
13309;SDS011;6723;48.256;16.402;2022-08-03T00:46:15;2.97;;;2.67;;
13309;SDS011;6723;48.256;16.402;2022-08-03T00:48:41;2.67;;;2.40;;
13309;SDS011;6723;48.256;16.402;2022-08-03T00:51:06;3.30;;;2.60;;
13309;SDS011;6723;48.256;16.402;2022-08-03T00:53:33;3.33;;;2.53;;
13309;SDS011;6723;48.256;16.402;2022-08-03T00:56:00;3.13;;;2.80;;
13309;SDS011;6723;48.256;16.402;2022-08-03T00:58:26;3.77;;;2.90;;
13309;SDS011;6723;48.256;16.402;2022-08-03T01:00:52;3.20;;;2.83;;
13309;SDS011;6723;48.256;16.402;2022-08-03T01:03:17;2.67;;;2.40;;
13309;SDS011;6723;48.256;16.402;2022-08-03T01:05:52;4.07;;;2.90;;
13309;SDS011;6723;48.256;16.402;2022-08-03T01:08:45;3.10;;;2.80;;
13309;SDS011;6723;48.256;16.402;2022-08-03T01:17:04;3.53;;;2.63;;
13309;SDS011;6723;48.256;16.402;2022-08-03T01:20:05;3.07;;;2.87;;
13309;SDS011;6723;48.256;16.402;2022-08-03T01:28:43;3.77;;;2.70;;
13309;SDS011;6723;48.256;16.402;2022-08-03T01:32:11;2.90;;;2.70;;
13309;SDS011;6723;48.256;16.402;2022-08-03T01:34:21;3.50;;;3.00;;
13309;SDS011;6723;48.256;16.402;2022-08-03T01:36:51;3.10;;;2.73;;
13309;SDS011;6723;48.256;16.402;2022-08-03T01:39:20;4.47;;;2.70;;
13309;SDS011;6723;48.256;16.402;2022-08-03T01:41:49;3.60;;;2.73;;
13309;SDS011;6723;48.256;16.402;2022-08-03T01:44:24;3.07;;;2.77;;
13309;SDS011;6723;48.256;16.402;2022-08-03T01:46:54;3.63;;;3.33;;
13309;SDS011;6723;48.256;16.402;2022-08-03T01:49:25;3.30;;;2.97;;
13309;SDS011;6723;48.256;16.402;2022-08-03T01:51:54;4.03;;;3.17;;
13309;SDS011;6723;48.256;16.402;2022-08-03T01:54:21;3.57;;;3.27;;
13309;SDS011;6723;48.256;16.402;2022-08-03T01:56:49;3.90;;;3.50;;
13309;SDS011;6723;48.256;16.402;2022-08-03T01:59:16;3.37;;;3.10;;
13309;SDS011;6723;48.256;16.402;2022-08-03T02:01:44;4.07;;;3.13;;
13309;SDS011;6723;48.256;16.402;2022-08-03T02:04:13;3.77;;;3.37;;
13309;SDS011;6723;48.256;16.402;2022-08-03T02:06:41;3.90;;;3.50;;
13309;SDS011;6723;48.256;16.402;2022-08-03T02:09:08;4.43;;;3.47;;
13309;SDS011;6723;48.256;16.402;2022-08-03T02:11:36;3.50;;;3.20;;
13309;SDS011;6723;48.256;16.402;2022-08-03T02:14:04;3.00;;;2.80;;
13309;SDS011;6723;48.256;16.402;2022-08-03T02:16:32;3.43;;;3.07;;
13309;SDS011;6723;48.256;16.402;2022-08-03T02:18:58;5.07;;;3.17;;
13309;SDS011;6723;48.256;16.402;2022-08-03T02:21:28;3.60;;;3.30;;
13309;SDS011;6723;48.256;16.402;2022-08-03T02:23:57;5.20;;;3.90;;
13309;SDS011;6723;48.256;16.402;2022-08-03T02:26:23;4.20;;;3.53;;
13309;SDS011;6723;48.256;16.402;2022-08-03T02:28:55;4.30;;;3.90;;
13309;SDS011;6723;48.256;16.402;2022-08-03T02:31:27;4.80;;;4.30;;
13309;SDS011;6723;48.256;16.402;2022-08-03T02:34:01;4.90;;;4.03;;
13309;SDS011;6723;48.256;16.402;2022-08-03T02:36:30;4.20;;;3.80;;
13309;SDS011;6723;48.256;16.402;2022-08-03T02:39:01;3.80;;;3.30;;
13309;SDS011;6723;48.256;16.402;2022-08-03T02:41:37;4.47;;;3.83;;
13309;SDS011;6723;48.256;16.402;2022-08-03T02:44:09;4.03;;;3.50;;
13309;SDS011;6723;48.256;16.402;2022-08-03T02:46:37;4.17;;;3.77;;
13309;SDS011;6723;48.256;16.402;2022-08-03T02:49:06;4.23;;;3.83;;
13309;SDS011;6723;48.256;16.402;2022-08-03T02:51:35;3.80;;;3.50;;
13309;SDS011;6723;48.256;16.402;2022-08-03T02:54:02;3.87;;;3.37;;
13309;SDS011;6723;48.256;16.402;2022-08-03T02:56:29;5.67;;;3.60;;
13309;SDS011;6723;48.256;16.402;2022-08-03T02:59:13;3.90;;;3.10;;
13309;SDS011;6723;48.256;16.402;2022-08-03T03:01:42;4.87;;;3.40;;
13309;SDS011;6723;48.256;16.402;2022-08-03T03:04:10;3.47;;;3.17;;
13309;SDS011;6723;48.256;16.402;2022-08-03T03:06:37;4.03;;;3.63;;
13309;SDS011;6723;48.256;16.402;2022-08-03T03:09:04;5.87;;;3.47;;
13309;SDS011;6723;48.256;16.402;2022-08-03T03:11:30;3.60;;;3.30;;
13309;SDS011;6723;48.256;16.402;2022-08-03T03:13:58;3.63;;;3.30;;
13309;SDS011;6723;48.256;16.402;2022-08-03T03:16:25;4.30;;;3.30;;
13309;SDS011;6723;48.256;16.402;2022-08-03T03:18:53;4.07;;;3.67;;
13309;SDS011;6723;48.256;16.402;2022-08-03T03:21:20;4.07;;;3.67;;
13309;SDS011;6723;48.256;16.402;2022-08-03T03:23:47;3.73;;;3.07;;
13309;SDS011;6723;48.256;16.402;2022-08-03T03:26:13;3.43;;;3.17;;
13309;SDS011;6723;48.256;16.402;2022-08-03T03:28:40;3.83;;;3.53;;
13309;SDS011;6723;48.256;16.402;2022-08-03T03:31:06;6.77;;;3.63;;
13309;SDS011;6723;48.256;16.402;2022-08-03T03:33:33;3.73;;;3.30;;
13309;SDS011;6723;48.256;16.402;2022-08-03T03:36:01;6.37;;;4.50;;
13309;SDS011;6723;48.256;16.402;2022-08-03T03:38:28;4.23;;;3.83;;
13309;SDS011;6723;48.256;16.402;2022-08-03T03:40:57;4.47;;;4.07;;
13309;SDS011;6723;48.256;16.402;2022-08-03T03:43:27;4.33;;;3.93;;
13309;SDS011;6723;48.256;16.402;2022-08-03T03:45:58;7.13;;;4.50;;
13309;SDS011;6723;48.256;16.402;2022-08-03T03:48:25;5.37;;;3.70;;
13309;SDS011;6723;48.256;16.402;2022-08-03T03:50:51;5.83;;;4.70;;
13309;SDS011;6723;48.256;16.402;2022-08-03T03:53:17;5.83;;;5.23;;
13309;SDS011;6723;48.256;16.402;2022-08-03T03:55:43;5.53;;;4.97;;
13309;SDS011;6723;48.256;16.402;2022-08-03T03:58:09;4.67;;;4.27;;
13309;SDS011;6723;48.256;16.402;2022-08-03T04:00:35;5.27;;;4.77;;
13309;SDS011;6723;48.256;16.402;2022-08-03T04:03:04;7.70;;;5.07;;
13309;SDS011;6723;48.256;16.402;2022-08-03T04:05:30;6.20;;;3.90;;
13309;SDS011;6723;48.256;16.402;2022-08-03T04:08:17;5.80;;;4.40;;
13309;SDS011;6723;48.256;16.402;2022-08-03T04:13:49;9.33;;;5.40;;
13309;SDS011;6723;48.256;16.402;2022-08-03T04:16:21;7.17;;;5.20;;
13309;SDS011;6723;48.256;16.402;2022-08-03T04:18:54;7.53;;;5.00;;
13309;SDS011;6723;48.256;16.402;2022-08-03T04:21:25;6.43;;;5.07;;
13309;SDS011;6723;48.256;16.402;2022-08-03T04:23:53;7.30;;;5.20;;
13309;SDS011;6723;48.256;16.402;2022-08-03T04:26:23;7.60;;;6.60;;
13309;SDS011;6723;48.256;16.402;2022-08-03T04:28:53;9.97;;;6.43;;
13309;SDS011;6723;48.256;16.402;2022-08-03T04:31:20;5.07;;;4.57;;
13309;SDS011;6723;48.256;16.402;2022-08-03T04:33:48;7.37;;;4.93;;
13309;SDS011;6723;48.256;16.402;2022-08-03T04:36:16;8.23;;;5.33;;
13309;SDS011;6723;48.256;16.402;2022-08-03T04:38:52;6.63;;;4.80;;
13309;SDS011;6723;48.256;16.402;2022-08-03T04:41:32;5.50;;;5.00;;
13309;SDS011;6723;48.256;16.402;2022-08-03T04:44:00;6.13;;;4.60;;
13309;SDS011;6723;48.256;16.402;2022-08-03T04:46:31;5.00;;;4.50;;
13309;SDS011;6723;48.256;16.402;2022-08-03T04:48:59;6.50;;;4.03;;
13309;SDS011;6723;48.256;16.402;2022-08-03T04:51:26;6.57;;;4.40;;
13309;SDS011;6723;48.256;16.402;2022-08-03T04:53:52;4.90;;;3.63;;
13309;SDS011;6723;48.256;16.402;2022-08-03T04:56:18;6.73;;;3.90;;
13309;SDS011;6723;48.256;16.402;2022-08-03T04:58:44;4.77;;;3.90;;
13309;SDS011;6723;48.256;16.402;2022-08-03T05:01:10;4.73;;;3.70;;
13309;SDS011;6723;48.256;16.402;2022-08-03T05:03:36;5.53;;;4.00;;
13309;SDS011;6723;48.256;16.402;2022-08-03T05:06:02;4.50;;;3.80;;
13309;SDS011;6723;48.256;16.402;2022-08-03T05:08:28;5.97;;;4.17;;
13309;SDS011;6723;48.256;16.402;2022-08-03T05:10:54;4.63;;;3.57;;
13309;SDS011;6723;48.256;16.402;2022-08-03T05:13:21;8.07;;;3.70;;
13309;SDS011;6723;48.256;16.402;2022-08-03T05:15:46;4.47;;;3.50;;
13309;SDS011;6723;48.256;16.402;2022-08-03T05:18:13;9.13;;;3.97;;
13309;SDS011;6723;48.256;16.402;2022-08-03T05:20:39;4.13;;;3.73;;
13309;SDS011;6723;48.256;16.402;2022-08-03T05:23:05;7.63;;;3.73;;
13309;SDS011;6723;48.256;16.402;2022-08-03T05:25:31;5.17;;;3.70;;
13309;SDS011;6723;48.256;16.402;2022-08-03T05:27:56;5.70;;;3.47;;
13309;SDS011;6723;48.256;16.402;2022-08-03T05:30:22;4.83;;;3.90;;
13309;SDS011;6723;48.256;16.402;2022-08-03T05:32:48;5.20;;;3.77;;
13309;SDS011;6723;48.256;16.402;2022-08-03T05:35:14;3.77;;;3.30;;
13309;SDS011;6723;48.256;16.402;2022-08-03T05:37:40;5.67;;;3.63;;
13309;SDS011;6723;48.256;16.402;2022-08-03T05:40:06;6.27;;;3.40;;
13309;SDS011;6723;48.256;16.402;2022-08-03T05:42:32;3.50;;;3.20;;
13309;SDS011;6723;48.256;16.402;2022-08-03T05:45:05;6.20;;;4.17;;
13309;SDS011;6723;48.256;16.402;2022-08-03T05:47:41;5.57;;;3.73;;
13309;SDS011;6723;48.256;16.402;2022-08-03T05:50:11;7.17;;;3.80;;
13309;SDS011;6723;48.256;16.402;2022-08-03T05:52:37;4.27;;;3.40;;
13309;SDS011;6723;48.256;16.402;2022-08-03T05:55:06;5.00;;;3.60;;
13309;SDS011;6723;48.256;16.402;2022-08-03T05:57:33;5.13;;;3.27;;
13309;SDS011;6723;48.256;16.402;2022-08-03T05:59:59;6.37;;;3.93;;
13309;SDS011;6723;48.256;16.402;2022-08-03T06:02:26;5.80;;;4.10;;
13309;SDS011;6723;48.256;16.402;2022-08-03T06:04:52;3.93;;;3.53;;
13309;SDS011;6723;48.256;16.402;2022-08-03T06:07:18;5.17;;;4.17;;
13309;SDS011;6723;48.256;16.402;2022-08-03T06:09:44;3.70;;;3.37;;
13309;SDS011;6723;48.256;16.402;2022-08-03T06:12:09;4.33;;;3.60;;
13309;SDS011;6723;48.256;16.402;2022-08-03T06:14:35;7.77;;;3.60;;
13309;SDS011;6723;48.256;16.402;2022-08-03T06:17:01;3.97;;;3.53;;
13309;SDS011;6723;48.256;16.402;2022-08-03T06:19:27;4.83;;;3.43;;
13309;SDS011;6723;48.256;16.402;2022-08-03T06:21:52;4.20;;;3.80;;
13309;SDS011;6723;48.256;16.402;2022-08-03T06:24:18;3.93;;;3.20;;
13309;SDS011;6723;48.256;16.402;2022-08-03T06:26:44;3.67;;;3.30;;
13309;SDS011;6723;48.256;16.402;2022-08-03T06:29:10;4.93;;;3.53;;
13309;SDS011;6723;48.256;16.402;2022-08-03T06:31:35;6.03;;;3.43;;
13309;SDS011;6723;48.256;16.402;2022-08-03T06:34:02;3.93;;;3.10;;
13309;SDS011;6723;48.256;16.402;2022-08-03T06:36:29;5.00;;;3.83;;
13309;SDS011;6723;48.256;16.402;2022-08-03T06:38:58;9.60;;;3.60;;
13309;SDS011;6723;48.256;16.402;2022-08-03T06:41:25;5.23;;;3.33;;
13309;SDS011;6723;48.256;16.402;2022-08-03T06:43:51;6.17;;;3.67;;
13309;SDS011;6723;48.256;16.402;2022-08-03T06:46:17;5.97;;;3.50;;
13309;SDS011;6723;48.256;16.402;2022-08-03T06:48:43;5.30;;;3.60;;
13309;SDS011;6723;48.256;16.402;2022-08-03T06:51:09;3.87;;;3.20;;
13309;SDS011;6723;48.256;16.402;2022-08-03T06:53:35;5.97;;;3.50;;
13309;SDS011;6723;48.256;16.402;2022-08-03T06:56:01;7.50;;;3.20;;
13309;SDS011;6723;48.256;16.402;2022-08-03T06:58:28;5.03;;;3.20;;
13309;SDS011;6723;48.256;16.402;2022-08-03T07:00:54;5.03;;;3.13;;
13309;SDS011;6723;48.256;16.402;2022-08-03T07:03:19;5.77;;;3.63;;
13309;SDS011;6723;48.256;16.402;2022-08-03T07:05:45;3.00;;;2.70;;
13309;SDS011;6723;48.256;16.402;2022-08-03T07:08:11;3.10;;;2.70;;
13309;SDS011;6723;48.256;16.402;2022-08-03T07:10:38;2.87;;;2.67;;
13309;SDS011;6723;48.256;16.402;2022-08-03T07:13:04;3.80;;;2.60;;
13309;SDS011;6723;48.256;16.402;2022-08-03T07:15:30;6.37;;;2.80;;
13309;SDS011;6723;48.256;16.402;2022-08-03T07:17:56;3.47;;;2.53;;
13309;SDS011;6723;48.256;16.402;2022-08-03T07:20:22;3.23;;;2.60;;
13309;SDS011;6723;48.256;16.402;2022-08-03T07:22:48;5.37;;;2.80;;
13309;SDS011;6723;48.256;16.402;2022-08-03T07:25:20;3.37;;;2.50;;
13309;SDS011;6723;48.256;16.402;2022-08-03T07:27:47;3.05;;;2.70;;
13309;SDS011;6723;48.256;16.402;2022-08-03T07:30:13;3.70;;;2.50;;
13309;SDS011;6723;48.256;16.402;2022-08-03T07:32:41;4.45;;;2.00;;
13309;SDS011;6723;48.256;16.402;2022-08-03T07:35:07;3.20;;;2.13;;
13309;SDS011;6723;48.256;16.402;2022-08-03T07:37:33;3.83;;;2.10;;
13309;SDS011;6723;48.256;16.402;2022-08-03T07:40:00;3.38;;;2.17;;
13309;SDS011;6723;48.256;16.402;2022-08-03T07:42:27;3.80;;;1.80;;
13309;SDS011;6723;48.256;16.402;2022-08-03T07:44:54;3.53;;;1.77;;
13309;SDS011;6723;48.256;16.402;2022-08-03T07:47:22;2.08;;;1.50;;
13309;SDS011;6723;48.256;16.402;2022-08-03T07:49:49;1.65;;;1.45;;
13309;SDS011;6723;48.256;16.402;2022-08-03T07:52:15;4.75;;;1.77;;
13309;SDS011;6723;48.256;16.402;2022-08-03T07:55:00;7.57;;;1.80;;
13309;SDS011;6723;48.256;16.402;2022-08-03T07:57:25;6.82;;;1.70;;
13309;SDS011;6723;48.256;16.402;2022-08-03T07:59:51;3.22;;;1.67;;
13309;SDS011;6723;48.256;16.402;2022-08-03T08:02:17;3.35;;;1.58;;
13309;SDS011;6723;48.256;16.402;2022-08-03T08:04:43;2.15;;;1.30;;
13309;SDS011;6723;48.256;16.402;2022-08-03T08:07:08;1.88;;;1.60;;
13309;SDS011;6723;48.256;16.402;2022-08-03T08:09:34;2.80;;;1.52;;
13309;SDS011;6723;48.256;16.402;2022-08-03T08:12:00;2.60;;;1.48;;
13309;SDS011;6723;48.256;16.402;2022-08-03T08:14:26;2.70;;;1.33;;
13309;SDS011;6723;48.256;16.402;2022-08-03T08:16:51;2.92;;;1.30;;
13309;SDS011;6723;48.256;16.402;2022-08-03T08:19:17;1.85;;;1.30;;
13309;SDS011;6723;48.256;16.402;2022-08-03T08:21:49;5.18;;;1.55;;
13309;SDS011;6723;48.256;16.402;2022-08-03T08:24:15;2.67;;;1.40;;
13309;SDS011;6723;48.256;16.402;2022-08-03T08:26:41;4.43;;;1.40;;
13309;SDS011;6723;48.256;16.402;2022-08-03T08:29:06;4.05;;;1.50;;
13309;SDS011;6723;48.256;16.402;2022-08-03T08:31:33;2.25;;;1.50;;
13309;SDS011;6723;48.256;16.402;2022-08-03T08:33:59;1.80;;;1.45;;
13309;SDS011;6723;48.256;16.402;2022-08-03T08:36:32;4.25;;;1.40;;
13309;SDS011;6723;48.256;16.402;2022-08-03T08:38:59;3.13;;;1.50;;
13309;SDS011;6723;48.256;16.402;2022-08-03T08:41:26;2.70;;;1.40;;
13309;SDS011;6723;48.256;16.402;2022-08-03T08:43:52;3.10;;;1.40;;
13309;SDS011;6723;48.256;16.402;2022-08-03T08:46:20;1.67;;;1.00;;
13309;SDS011;6723;48.256;16.402;2022-08-03T08:48:47;1.73;;;1.20;;
13309;SDS011;6723;48.256;16.402;2022-08-03T08:51:15;8.13;;;1.30;;
13309;SDS011;6723;48.256;16.402;2022-08-03T08:53:44;3.13;;;1.05;;
13309;SDS011;6723;48.256;16.402;2022-08-03T08:56:15;14.05;;;1.80;;
13309;SDS011;6723;48.256;16.402;2022-08-03T08:58:50;14.48;;;2.17;;
13309;SDS011;6723;48.256;16.402;2022-08-03T09:01:17;3.60;;;1.38;;
13309;SDS011;6723;48.256;16.402;2022-08-03T09:03:45;5.38;;;1.67;;
13309;SDS011;6723;48.256;16.402;2022-08-03T09:06:11;3.58;;;1.40;;
13309;SDS011;6723;48.256;16.402;2022-08-03T09:08:37;3.63;;;1.40;;
13309;SDS011;6723;48.256;16.402;2022-08-03T09:11:03;4.43;;;1.38;;
13309;SDS011;6723;48.256;16.402;2022-08-03T09:13:29;3.50;;;1.38;;
13309;SDS011;6723;48.256;16.402;2022-08-03T09:16:18;2.60;;;1.25;;
13309;SDS011;6723;48.256;16.402;2022-08-03T09:18:46;2.70;;;1.40;;
13309;SDS011;6723;48.256;16.402;2022-08-03T09:23:55;5.97;;;1.52;;
13309;SDS011;6723;48.256;16.402;2022-08-03T09:26:23;1.42;;;1.33;;
13309;SDS011;6723;48.256;16.402;2022-08-03T09:28:55;1.58;;;1.48;;
13309;SDS011;6723;48.256;16.402;2022-08-03T09:31:29;3.90;;;1.50;;
13309;SDS011;6723;48.256;16.402;2022-08-03T09:33:57;3.40;;;1.40;;
13309;SDS011;6723;48.256;16.402;2022-08-03T09:36:36;1.50;;;1.40;;
13309;SDS011;6723;48.256;16.402;2022-08-03T09:39:11;2.95;;;1.45;;
13309;SDS011;6723;48.256;16.402;2022-08-03T09:42:03;1.58;;;1.20;;
13309;SDS011;6723;48.256;16.402;2022-08-03T09:44:40;3.90;;;1.40;;
13309;SDS011;6723;48.256;16.402;2022-08-03T09:47:12;2.10;;;1.27;;
13309;SDS011;6723;48.256;16.402;2022-08-03T09:49:55;1.83;;;1.40;;
13309;SDS011;6723;48.256;16.402;2022-08-03T09:52:49;1.90;;;1.80;;
13309;SDS011;6723;48.256;16.402;2022-08-03T09:55:16;1.80;;;1.70;;
13309;SDS011;6723;48.256;16.402;2022-08-03T09:57:44;2.38;;;1.70;;
13309;SDS011;6723;48.256;16.402;2022-08-03T10:00:11;1.70;;;1.60;;
13309;SDS011;6723;48.256;16.402;2022-08-03T10:02:39;1.83;;;1.60;;
13309;SDS011;6723;48.256;16.402;2022-08-03T10:05:06;3.55;;;1.70;;
13309;SDS011;6723;48.256;16.402;2022-08-03T10:07:43;3.05;;;1.90;;
13309;SDS011;6723;48.256;16.402;2022-08-03T10:10:10;2.10;;;1.90;;
13309;SDS011;6723;48.256;16.402;2022-08-03T10:12:37;4.00;;;2.05;;
13309;SDS011;6723;48.256;16.402;2022-08-03T10:15:05;2.40;;;1.98;;
13309;SDS011;6723;48.256;16.402;2022-08-03T10:17:35;3.28;;;1.90;;
13309;SDS011;6723;48.256;16.402;2022-08-03T10:20:05;2.35;;;2.15;;
13309;SDS011;6723;48.256;16.402;2022-08-03T10:22:32;3.75;;;2.08;;
13309;SDS011;6723;48.256;16.402;2022-08-03T10:25:07;2.30;;;2.10;;
13309;SDS011;6723;48.256;16.402;2022-08-03T10:27:37;2.35;;;1.83;;
13309;SDS011;6723;48.256;16.402;2022-08-03T10:30:11;3.45;;;2.05;;
13309;SDS011;6723;48.256;16.402;2022-08-03T10:32:47;2.90;;;1.85;;
13309;SDS011;6723;48.256;16.402;2022-08-03T10:35:18;1.85;;;1.75;;
13309;SDS011;6723;48.256;16.402;2022-08-03T10:37:57;2.13;;;1.92;;
13309;SDS011;6723;48.256;16.402;2022-08-03T10:40:26;1.98;;;1.60;;
13309;SDS011;6723;48.256;16.402;2022-08-03T10:42:54;1.98;;;1.83;;
13309;SDS011;6723;48.256;16.402;2022-08-03T10:45:25;3.47;;;1.80;;
13309;SDS011;6723;48.256;16.402;2022-08-03T10:47:52;3.63;;;1.90;;
13309;SDS011;6723;48.256;16.402;2022-08-03T10:50:21;3.13;;;2.10;;
13309;SDS011;6723;48.256;16.402;2022-08-03T10:53:02;2.45;;;1.75;;
13309;SDS011;6723;48.256;16.402;2022-08-03T10:55:39;1.92;;;1.83;;
13309;SDS011;6723;48.256;16.402;2022-08-03T11:03:29;1.80;;;1.60;;
13309;SDS011;6723;48.256;16.402;2022-08-03T11:11:52;3.35;;;1.45;;
13309;SDS011;6723;48.256;16.402;2022-08-03T11:14:19;2.70;;;1.60;;
13309;SDS011;6723;48.256;16.402;2022-08-03T11:16:49;1.75;;;1.65;;
13309;SDS011;6723;48.256;16.402;2022-08-03T11:19:43;2.83;;;1.70;;
13309;SDS011;6723;48.256;16.402;2022-08-03T11:22:11;1.65;;;1.55;;
13309;SDS011;6723;48.256;16.402;2022-08-03T11:35:11;6.22;;;1.83;;
13309;SDS011;6723;48.256;16.402;2022-08-03T11:46:15;1.65;;;1.45;;
13309;SDS011;6723;48.256;16.402;2022-08-03T11:48:46;3.00;;;1.50;;
13309;SDS011;6723;48.256;16.402;2022-08-03T11:51:19;1.50;;;1.40;;
13309;SDS011;6723;48.256;16.402;2022-08-03T11:53:55;3.13;;;1.40;;
13309;SDS011;6723;48.256;16.402;2022-08-03T11:56:26;1.60;;;1.50;;
13309;SDS011;6723;48.256;16.402;2022-08-03T12:01:44;2.78;;;1.50;;
13309;SDS011;6723;48.256;16.402;2022-08-03T12:04:10;1.58;;;1.48;;
13309;SDS011;6723;48.256;16.402;2022-08-03T12:06:36;1.83;;;1.27;;
13309;SDS011;6723;48.256;16.402;2022-08-03T12:09:20;1.50;;;1.40;;
13309;SDS011;6723;48.256;16.402;2022-08-03T12:11:47;1.70;;;1.38;;
13309;SDS011;6723;48.256;16.402;2022-08-03T12:14:18;1.67;;;1.38;;
13309;SDS011;6723;48.256;16.402;2022-08-03T12:16:47;1.50;;;1.40;;
13309;SDS011;6723;48.256;16.402;2022-08-03T12:19:14;3.03;;;1.30;;
13309;SDS011;6723;48.256;16.402;2022-08-03T12:21:46;1.48;;;1.38;;
13309;SDS011;6723;48.256;16.402;2022-08-03T12:24:13;2.30;;;1.50;;
13309;SDS011;6723;48.256;16.402;2022-08-03T12:26:46;1.83;;;1.42;;
13309;SDS011;6723;48.256;16.402;2022-08-03T12:31:43;3.28;;;1.40;;
13309;SDS011;6723;48.256;16.402;2022-08-03T12:34:12;1.58;;;1.48;;
13309;SDS011;6723;48.256;16.402;2022-08-03T12:36:48;1.50;;;1.40;;
13309;SDS011;6723;48.256;16.402;2022-08-03T12:39:21;1.50;;;1.40;;
13309;SDS011;6723;48.256;16.402;2022-08-03T12:41:51;2.38;;;1.45;;
13309;SDS011;6723;48.256;16.402;2022-08-03T12:44:27;3.70;;;1.40;;
13309;SDS011;6723;48.256;16.402;2022-08-03T12:46:58;3.28;;;1.83;;
13309;SDS011;6723;48.256;16.402;2022-08-03T12:49:26;1.88;;;1.50;;
13309;SDS011;6723;48.256;16.402;2022-08-03T12:54:20;1.70;;;1.25;;
13309;SDS011;6723;48.256;16.402;2022-08-03T12:57:00;1.85;;;1.45;;
13309;SDS011;6723;48.256;16.402;2022-08-03T13:02:19;2.58;;;1.70;;
13309;SDS011;6723;48.256;16.402;2022-08-03T13:04:47;3.03;;;1.60;;
13309;SDS011;6723;48.256;16.402;2022-08-03T13:07:15;2.58;;;1.60;;
13309;SDS011;6723;48.256;16.402;2022-08-03T13:10:03;1.90;;;1.50;;
13309;SDS011;6723;48.256;16.402;2022-08-03T13:12:28;1.92;;;1.40;;
13309;SDS011;6723;48.256;16.402;2022-08-03T13:14:56;2.10;;;1.40;;
13309;SDS011;6723;48.256;16.402;2022-08-03T13:17:24;1.70;;;1.20;;
13309;SDS011;6723;48.256;16.402;2022-08-03T13:19:51;2.45;;;1.40;;
13309;SDS011;6723;48.256;16.402;2022-08-03T13:22:19;1.45;;;1.35;;
13309;SDS011;6723;48.256;16.402;2022-08-03T13:24:48;3.13;;;1.70;;
13309;SDS011;6723;48.256;16.402;2022-08-03T13:27:16;1.50;;;1.40;;
13309;SDS011;6723;48.256;16.402;2022-08-03T13:29:42;1.75;;;1.60;;
13309;SDS011;6723;48.256;16.402;2022-08-03T13:32:08;4.10;;;1.77;;
13309;SDS011;6723;48.256;16.402;2022-08-03T13:34:35;1.60;;;1.50;;
13309;SDS011;6723;48.256;16.402;2022-08-03T13:37:01;2.63;;;1.55;;
13309;SDS011;6723;48.256;16.402;2022-08-03T13:39:28;1.90;;;1.80;;
13309;SDS011;6723;48.256;16.402;2022-08-03T13:41:53;3.33;;;2.30;;
13309;SDS011;6723;48.256;16.402;2022-08-03T13:44:19;3.75;;;2.17;;
13309;SDS011;6723;48.256;16.402;2022-08-03T13:46:46;5.13;;;2.17;;
13309;SDS011;6723;48.256;16.402;2022-08-03T13:49:12;2.55;;;2.28;;
13309;SDS011;6723;48.256;16.402;2022-08-03T13:51:38;4.68;;;2.40;;
13309;SDS011;6723;48.256;16.402;2022-08-03T13:54:04;19.02;;;17.25;;
13309;SDS011;6723;48.256;16.402;2022-08-03T13:56:30;8.98;;;5.60;;
13309;SDS011;6723;48.256;16.402;2022-08-03T13:58:56;3.40;;;2.97;;
13309;SDS011;6723;48.256;16.402;2022-08-03T14:01:23;2.15;;;1.95;;
13309;SDS011;6723;48.256;16.402;2022-08-03T14:03:49;3.53;;;1.88;;
13309;SDS011;6723;48.256;16.402;2022-08-03T14:06:20;4.72;;;1.52;;
13309;SDS011;6723;48.256;16.402;2022-08-03T14:08:47;6.85;;;2.08;;
13309;SDS011;6723;48.256;16.402;2022-08-03T14:11:13;2.83;;;1.52;;
13309;SDS011;6723;48.256;16.402;2022-08-03T14:13:39;1.63;;;1.35;;
13309;SDS011;6723;48.256;16.402;2022-08-03T14:16:05;2.00;;;1.63;;
13309;SDS011;6723;48.256;16.402;2022-08-03T14:18:31;3.13;;;1.98;;
13309;SDS011;6723;48.256;16.402;2022-08-03T14:20:57;1.80;;;1.45;;
13309;SDS011;6723;48.256;16.402;2022-08-03T14:23:24;1.95;;;1.63;;
13309;SDS011;6723;48.256;16.402;2022-08-03T14:25:50;2.60;;;1.60;;
13309;SDS011;6723;48.256;16.402;2022-08-03T14:28:20;1.48;;;1.38;;
13309;SDS011;6723;48.256;16.402;2022-08-03T14:30:47;2.05;;;1.65;;
13309;SDS011;6723;48.256;16.402;2022-08-03T14:33:13;3.83;;;1.50;;
13309;SDS011;6723;48.256;16.402;2022-08-03T14:35:39;2.15;;;1.58;;
13309;SDS011;6723;48.256;16.402;2022-08-03T14:38:05;2.72;;;1.50;;
13309;SDS011;6723;48.256;16.402;2022-08-03T14:40:31;3.38;;;1.65;;
13309;SDS011;6723;48.256;16.402;2022-08-03T14:42:57;5.35;;;1.63;;
13309;SDS011;6723;48.256;16.402;2022-08-03T14:45:22;1.95;;;1.25;;
13309;SDS011;6723;48.256;16.402;2022-08-03T14:47:48;2.53;;;1.60;;
13309;SDS011;6723;48.256;16.402;2022-08-03T14:50:15;3.25;;;2.53;;
13309;SDS011;6723;48.256;16.402;2022-08-03T14:52:41;4.80;;;2.67;;
13309;SDS011;6723;48.256;16.402;2022-08-03T14:55:07;3.47;;;2.40;;
13309;SDS011;6723;48.256;16.402;2022-08-03T14:57:33;2.20;;;2.00;;
13309;SDS011;6723;48.256;16.402;2022-08-03T14:59:59;1.90;;;1.80;;
13309;SDS011;6723;48.256;16.402;2022-08-03T15:02:25;1.70;;;1.60;;
13309;SDS011;6723;48.256;16.402;2022-08-03T15:04:51;3.65;;;1.60;;
13309;SDS011;6723;48.256;16.402;2022-08-03T15:07:33;4.28;;;2.67;;
13309;SDS011;6723;48.256;16.402;2022-08-03T15:09:59;2.30;;;1.83;;
13309;SDS011;6723;48.256;16.402;2022-08-03T15:12:31;2.83;;;1.80;;
13309;SDS011;6723;48.256;16.402;2022-08-03T15:14:57;3.25;;;1.70;;
13309;SDS011;6723;48.256;16.402;2022-08-03T15:17:22;2.35;;;1.70;;
13309;SDS011;6723;48.256;16.402;2022-08-03T15:19:48;4.22;;;1.80;;
13309;SDS011;6723;48.256;16.402;2022-08-03T15:22:14;2.78;;;2.00;;
13309;SDS011;6723;48.256;16.402;2022-08-03T15:24:41;2.95;;;1.50;;
13309;SDS011;6723;48.256;16.402;2022-08-03T15:27:07;2.13;;;1.42;;
13309;SDS011;6723;48.256;16.402;2022-08-03T15:29:32;4.07;;;2.88;;
13309;SDS011;6723;48.256;16.402;2022-08-03T15:31:58;5.07;;;2.58;;
13309;SDS011;6723;48.256;16.402;2022-08-03T15:34:24;7.38;;;5.30;;
13309;SDS011;6723;48.256;16.402;2022-08-03T15:36:50;6.50;;;4.85;;
13309;SDS011;6723;48.256;16.402;2022-08-03T15:39:15;2.55;;;1.70;;
13309;SDS011;6723;48.256;16.402;2022-08-03T15:41:41;6.05;;;1.90;;
13309;SDS011;6723;48.256;16.402;2022-08-03T15:44:07;1.90;;;1.70;;
13309;SDS011;6723;48.256;16.402;2022-08-03T15:46:33;4.05;;;1.85;;
13309;SDS011;6723;48.256;16.402;2022-08-03T15:48:59;3.90;;;1.70;;
13309;SDS011;6723;48.256;16.402;2022-08-03T15:54:03;2.53;;;1.80;;
13309;SDS011;6723;48.256;16.402;2022-08-03T15:56:31;3.45;;;1.77;;